Time;durP1;ratioP1;P1;durP2;ratioP2;P2;SDS_P1;SDS_P2;PMS_P1;PMS_P2;Temp;Humidity;BMP_temperature;BMP_pressure;BME280_temperature;BME280_humidity;BME280_pressure;Samples;Min_cycle;Max_cycle;Signal;HPM_P1;HPM_P2
2023/05/17 00:00:11;;;;;;;4.57;2.70;;;;;;;10.12;100.00;98416.13;2604390;28;20046;-85
2023/05/17 00:01:47;;;;;;;3.88;2.53;;;;;;;10.27;100.00;98417.47;2605156;28;20140;-85
2023/05/17 00:03:02;;;;;;;3.60;2.30;;;;;;;10.21;100.00;98418.50;2594540;28;20041;-85
2023/05/17 00:04:18;;;;;;;6.80;2.25;;;;;;;9.99;100.00;98416.44;2597792;28;20406;-85
2023/05/17 00:05:33;;;;;;;7.18;2.35;;;;;;;10.05;100.00;98412.81;2601896;28;20938;-85
2023/05/17 00:06:49;;;;;;;4.32;1.83;;;;;;;10.13;100.00;98420.44;2603587;28;20053;-85
2023/05/17 00:08:04;;;;;;;5.35;1.52;;;;;;;9.97;100.00;98419.97;2602755;28;20133;-85
2023/05/17 00:09:20;;;;;;;2.42;1.80;;;;;;;9.99;100.00;98434.75;2604305;28;20048;-85
2023/05/17 00:10:35;;;;;;;7.10;2.15;;;;;;;10.16;100.00;98423.84;2601996;28;20049;-85
2023/05/17 00:11:51;;;;;;;3.00;1.70;;;;;;;10.17;100.00;98441.25;2603517;28;20439;-85
2023/05/17 00:13:07;;;;;;;4.28;1.65;;;;;;;9.85;100.00;98437.72;2603262;28;20413;-85
2023/05/17 00:14:22;;;;;;;6.03;2.13;;;;;;;10.01;100.00;98438.16;2605528;28;20346;-85
2023/05/17 00:15:38;;;;;;;4.40;2.03;;;;;;;10.19;100.00;98433.34;2603105;28;20428;-85
2023/05/17 00:16:53;;;;;;;5.78;1.80;;;;;;;10.08;100.00;98440.66;2605236;28;20063;-85
2023/05/17 00:18:09;;;;;;;6.97;1.77;;;;;;;10.28;100.00;98434.88;2604303;28;20054;-85
2023/05/17 00:19:24;;;;;;;3.72;1.65;;;;;;;10.20;100.00;98440.31;2603715;28;20392;-85
2023/05/17 00:20:40;;;;;;;7.13;1.95;;;;;;;10.16;100.00;98436.94;2602330;28;20161;-84
2023/05/17 00:21:56;;;;;;;5.57;1.77;;;;;;;10.31;100.00;98433.03;2604133;28;20045;-85
2023/05/17 00:23:11;;;;;;;3.05;1.60;;;;;;;10.21;100.00;98434.19;2602683;28;20053;-85
2023/05/17 00:24:27;;;;;;;4.80;1.90;;;;;;;10.30;100.00;98439.16;2605353;28;20052;-85
2023/05/17 00:25:42;;;;;;;4.82;1.50;;;;;;;10.60;99.73;98436.63;2604566;28;20045;-85
2023/05/17 00:26:58;;;;;;;6.20;1.60;;;;;;;10.57;100.00;98436.72;2603535;28;20401;-85
2023/05/17 00:28:14;;;;;;;5.88;2.55;;;;;;;10.56;99.42;98440.25;2597234;28;20092;-85
2023/05/17 00:29:29;;;;;;;2.60;1.40;;;;;;;10.44;100.00;98430.09;2602194;28;20057;-85
2023/05/17 00:30:45;;;;;;;4.60;1.70;;;;;;;10.23;100.00;98429.78;2602983;28;20053;-85
2023/05/17 00:32:00;;;;;;;4.93;1.65;;;;;;;10.14;100.00;98433.50;2598737;28;20064;-85
2023/05/17 00:33:16;;;;;;;5.53;1.80;;;;;;;10.22;100.00;98428.06;2601923;28;20504;-85
2023/05/17 00:34:31;;;;;;;3.72;1.98;;;;;;;10.12;100.00;98434.44;2604064;28;20488;-85
2023/05/17 00:35:47;;;;;;;5.20;1.80;;;;;;;9.99;100.00;98439.13;2605323;28;20064;-85
2023/05/17 00:37:03;;;;;;;4.95;1.75;;;;;;;10.20;100.00;98429.84;2603468;28;20512;-85
2023/05/17 00:38:18;;;;;;;2.20;1.70;;;;;;;10.21;100.00;98428.09;2604180;28;20061;-85
2023/05/17 00:39:34;;;;;;;4.93;1.60;;;;;;;10.34;100.00;98436.44;2603923;28;20072;-85
2023/05/17 00:40:50;;;;;;;1.50;1.10;;;;;;;10.28;100.00;98435.72;2602192;28;20550;-85
2023/05/17 00:42:06;;;;;;;3.35;1.27;;;;;;;10.04;100.00;98439.84;2603815;28;20056;-85
2023/05/17 00:43:21;;;;;;;3.55;1.45;;;;;;;9.88;99.18;98447.22;2603636;28;20083;-85
2023/05/17 00:44:37;;;;;;;3.47;1.48;;;;;;;9.84;98.44;98437.75;2602000;28;20053;-85
2023/05/17 00:45:52;;;;;;;6.07;1.67;;;;;;;9.94;98.42;98434.00;2603348;28;20072;-85
2023/05/17 00:47:08;;;;;;;2.33;1.45;;;;;;;9.91;97.32;98431.44;2603914;28;20500;-85
2023/05/17 00:48:24;;;;;;;4.72;1.20;;;;;;;9.94;100.00;98438.38;2601584;28;20116;-85
2023/05/17 00:49:40;;;;;;;2.28;1.10;;;;;;;10.01;98.11;98429.47;2602527;28;20091;-85
2023/05/17 00:50:57;;;;;;;6.55;1.25;;;;;;;9.96;99.41;98440.06;2603420;28;20163;-85
2023/05/17 00:52:13;;;;;;;3.50;1.20;;;;;;;9.82;97.73;98429.09;2604069;28;20136;-85
2023/05/17 00:53:29;;;;;;;3.65;1.30;;;;;;;9.56;100.00;98425.34;2603495;28;20165;-85
2023/05/17 00:54:45;;;;;;;3.30;1.10;;;;;;;9.78;96.43;98436.16;2598065;28;20073;-85
2023/05/17 00:56:01;;;;;;;1.40;1.00;;;;;;;9.71;90.39;98437.22;2601021;28;20059;-85
2023/05/17 00:57:17;;;;;;;4.57;1.15;;;;;;;9.93;83.38;98434.03;2603904;28;20055;-86
2023/05/17 00:58:33;;;;;;;6.18;1.10;;;;;;;9.60;78.78;98442.66;2602444;28;20142;-85
2023/05/17 00:59:50;;;;;;;3.63;1.35;;;;;;;9.89;75.60;98438.47;2604130;28;20050;-85
2023/05/17 01:01:05;;;;;;;3.25;0.93;;;;;;;10.02;74.22;98445.13;2602233;28;20063;-85
2023/05/17 01:02:21;;;;;;;1.50;1.10;;;;;;;10.04;72.85;98447.69;2603824;28;20080;-85
2023/05/17 01:03:37;;;;;;;2.10;0.90;;;;;;;9.88;74.08;98447.22;2604316;28;20056;-85
2023/05/17 01:04:52;;;;;;;4.05;1.10;;;;;;;10.00;72.56;98446.06;2602979;28;20060;-85
2023/05/17 01:06:08;;;;;;;1.98;0.85;;;;;;;9.93;73.48;98448.00;2604655;28;20496;-85
2023/05/17 01:07:24;;;;;;;2.20;1.00;;;;;;;9.88;74.81;98453.31;2602340;28;20068;-85
2023/05/17 01:08:39;;;;;;;2.63;0.90;;;;;;;10.01;72.14;98459.09;2602790;28;20408;-85
2023/05/17 01:09:56;;;;;;;4.00;1.00;;;;;;;10.11;72.73;98462.31;2598277;28;20076;-85
2023/05/17 01:11:30;;;;;;;3.92;1.00;;;;;;;10.07;70.96;98462.47;2601129;28;20085;-85
2023/05/17 01:13:04;;;;;;;5.35;1.10;;;;;;;10.07;70.52;98467.72;2604171;28;20061;-85
2023/05/17 01:14:40;;;;;;;2.85;1.20;;;;;;;9.99;72.25;98468.75;2601370;28;20072;-84
2023/05/17 01:16:09;;;;;;;2.05;0.80;;;;;;;10.14;73.26;98471.88;2604048;28;20081;-85
2023/05/17 01:17:46;;;;;;;2.95;1.27;;;;;;;10.22;70.21;98475.16;2601915;28;20384;-85
2023/05/17 01:19:44;;;;;;;3.13;0.90;;;;;;;10.15;68.39;98484.91;2603489;28;20060;-85
2023/05/17 01:21:00;;;;;;;2.65;1.08;;;;;;;10.21;66.31;98478.66;2569365;28;20149;-85
2023/05/17 01:22:46;;;;;;;6.70;1.27;;;;;;;10.28;67.29;98476.75;2571042;28;20051;-85
2023/05/17 01:24:24;;;;;;;2.60;1.05;;;;;;;10.40;65.83;98471.16;2566137;28;20521;-85
2023/05/17 01:26:07;;;;;;;3.42;1.02;;;;;;;10.28;66.00;98474.97;2570347;28;20061;-85
2023/05/17 01:27:25;;;;;;;1.42;0.98;;;;;;;10.30;64.39;98482.81;2572529;28;20079;-85
2023/05/17 01:28:45;;;;;;;5.15;1.25;;;;;;;10.04;64.36;98484.31;2572166;28;20130;-85
2023/05/17 01:30:01;;;;;;;2.92;0.82;;;;;;;10.06;64.28;98481.66;2571019;28;20152;-85
2023/05/17 01:31:17;;;;;;;3.38;0.80;;;;;;;10.15;61.13;98486.66;2571680;28;20050;-84
2023/05/17 01:32:33;;;;;;;4.07;0.98;;;;;;;9.93;60.96;98484.59;2570753;28;20912;-85
2023/05/17 01:33:49;;;;;;;3.95;1.02;;;;;;;10.16;62.48;98486.63;2569102;28;20076;-85
2023/05/17 01:35:05;;;;;;;4.25;0.77;;;;;;;9.94;61.93;98481.09;2571388;28;20047;-85
2023/05/17 01:36:20;;;;;;;4.25;0.75;;;;;;;10.05;62.21;98480.81;2569093;28;20594;-84
2023/05/17 01:37:37;;;;;;;1.13;0.73;;;;;;;10.28;63.16;98476.75;2571900;28;20069;-85
2023/05/17 01:38:53;;;;;;;3.38;0.85;;;;;;;10.25;63.57;98468.97;2572412;28;20050;-85
2023/05/17 01:40:09;;;;;;;3.90;1.15;;;;;;;10.00;64.01;98477.47;2570529;28;20452;-85
2023/05/17 01:41:27;;;;;;;3.85;0.90;;;;;;;10.31;63.79;98471.44;2571580;28;20082;-84
2023/05/17 01:42:45;;;;;;;6.60;1.20;;;;;;;10.31;65.35;98485.34;2572479;28;20288;-86
2023/05/17 01:44:19;;;;;;;4.57;0.95;;;;;;;10.17;65.79;98488.34;2571655;28;20109;-85
2023/05/17 01:45:52;;;;;;;1.65;0.93;;;;;;;10.04;64.64;98484.31;2571484;28;20467;-85
2023/05/17 01:47:15;;;;;;;2.42;1.20;;;;;;;9.80;64.04;98489.25;2565678;28;20051;-84
2023/05/17 01:48:38;;;;;;;2.42;0.90;;;;;;;9.84;64.98;98484.81;2571382;28;20077;-85
2023/05/17 01:49:57;;;;;;;1.48;0.88;;;;;;;9.92;63.79;98489.84;2571945;28;20091;-85
2023/05/17 01:51:17;;;;;;;1.20;0.68;;;;;;;9.65;64.04;98500.06;2570086;28;20051;-85
2023/05/17 01:52:54;;;;;;;1.40;0.90;;;;;;;9.65;62.53;98490.50;2571080;28;20089;-84
2023/05/17 01:54:11;;;;;;;2.92;0.80;;;;;;;9.92;63.07;98490.72;2571518;28;20441;-85
2023/05/17 01:55:33;;;;;;;5.65;0.90;;;;;;;9.71;63.86;98490.34;2584999;28;20045;-85
2023/05/17 01:56:56;;;;;;;5.20;0.77;;;;;;;9.79;63.71;98486.69;2602637;28;20053;-85
2023/05/17 01:58:12;;;;;;;1.30;0.90;;;;;;;9.77;62.61;98488.47;2601361;28;20493;-84
2023/05/17 01:59:30;;;;;;;2.75;0.82;;;;;;;9.68;63.34;98485.19;2601161;28;20053;-83
2023/05/17 02:00:47;;;;;;;4.07;1.10;;;;;;;9.81;63.80;98487.50;2603976;28;20152;-83
2023/05/17 02:02:08;;;;;;;2.60;0.90;;;;;;;9.78;63.30;98488.44;2602404;28;20048;-83
2023/05/17 02:03:26;;;;;;;1.90;0.90;;;;;;;9.61;62.78;98487.09;2603318;28;20554;-83
2023/05/17 02:04:42;;;;;;;2.28;1.10;;;;;;;9.53;64.26;98489.00;2604069;28;20056;-83
2023/05/17 02:05:57;;;;;;;1.73;1.02;;;;;;;9.59;62.22;98488.00;2602500;28;20049;-86
2023/05/17 02:07:13;;;;;;;4.53;1.10;;;;;;;9.64;62.93;98491.41;2603339;28;20467;-84
2023/05/17 02:08:28;;;;;;;2.92;0.80;;;;;;;9.57;61.57;98495.03;2603321;28;20497;-83
2023/05/17 02:09:44;;;;;;;3.05;0.80;;;;;;;9.54;61.97;98495.94;2601197;28;20142;-83
2023/05/17 02:11:00;;;;;;;4.05;0.73;;;;;;;9.23;62.65;98498.41;2602449;28;20471;-83
2023/05/17 02:12:15;;;;;;;1.85;0.70;;;;;;;9.52;61.34;98496.91;2604585;28;20042;-83
2023/05/17 02:13:31;;;;;;;4.22;0.70;;;;;;;9.56;60.82;98499.38;2601928;28;20053;-83
2023/05/17 02:14:47;;;;;;;2.00;0.90;;;;;;;9.63;60.11;98502.72;2600918;28;20049;-83
2023/05/17 02:16:03;;;;;;;0.60;0.50;;;;;;;9.28;61.53;98499.16;2601952;28;20453;-83
2023/05/17 02:17:18;;;;;;;2.60;0.88;;;;;;;9.50;61.08;98499.53;2602525;28;20139;-84
2023/05/17 02:18:36;;;;;;;0.88;0.70;;;;;;;9.47;61.02;98500.47;2602253;28;20049;-84
2023/05/17 02:19:51;;;;;;;1.38;0.70;;;;;;;9.40;62.27;98504.13;2604160;28;20409;-83
2023/05/17 02:21:07;;;;;;;1.52;0.63;;;;;;;9.45;61.38;98507.47;2601474;28;20061;-86
2023/05/17 02:22:23;;;;;;;1.13;0.60;;;;;;;9.42;61.00;98507.56;2604294;28;20099;-86
2023/05/17 02:23:38;;;;;;;1.17;0.73;;;;;;;9.38;61.58;98507.66;2601905;28;20108;-86
2023/05/17 02:24:54;;;;;;;3.13;0.70;;;;;;;9.36;62.75;98512.94;2602461;28;20045;-85
2023/05/17 02:26:09;;;;;;;2.20;0.90;;;;;;;9.46;62.21;98511.81;2601931;28;20058;-86
2023/05/17 02:27:25;;;;;;;2.78;0.90;;;;;;;9.40;62.50;98509.34;2604617;28;20045;-85
2023/05/17 02:28:40;;;;;;;1.65;0.93;;;;;;;9.37;61.96;98509.41;2602692;28;20349;-85
2023/05/17 02:29:56;;;;;;;6.78;1.00;;;;;;;9.19;63.67;98506.28;2603012;28;20300;-85
2023/05/17 02:31:11;;;;;;;1.27;0.70;;;;;;;9.38;61.41;98513.75;2602949;28;20446;-86
2023/05/17 02:32:27;;;;;;;1.67;0.60;;;;;;;9.25;62.75;98517.53;2597831;28;20100;-85
2023/05/17 02:33:43;;;;;;;3.08;0.93;;;;;;;9.36;61.44;98512.06;2606227;28;20283;-85
2023/05/17 02:34:58;;;;;;;2.40;0.80;;;;;;;9.19;62.55;98508.91;2605138;28;20110;-86
2023/05/17 02:36:14;;;;;;;1.80;0.60;;;;;;;9.19;63.08;98510.66;2604087;28;20056;-85
2023/05/17 02:37:30;;;;;;;3.25;0.82;;;;;;;9.32;62.29;98512.13;2605454;28;20067;-85
2023/05/17 02:38:45;;;;;;;0.88;0.63;;;;;;;9.19;62.17;98506.28;2606218;28;20056;-85
2023/05/17 02:40:01;;;;;;;2.03;1.05;;;;;;;9.16;62.18;98510.75;2604574;28;20128;-85
2023/05/17 02:41:16;;;;;;;2.25;0.70;;;;;;;9.18;62.99;98512.41;2605351;28;20050;-85
2023/05/17 02:42:32;;;;;;;0.70;0.60;;;;;;;9.01;63.00;98514.53;2604342;28;20045;-85
2023/05/17 02:43:48;;;;;;;2.13;0.90;;;;;;;9.09;63.05;98515.22;2605644;28;20132;-85
2023/05/17 02:45:04;;;;;;;2.67;0.70;;;;;;;8.95;64.33;98514.66;2604845;28;20050;-85
2023/05/17 02:46:20;;;;;;;3.50;1.40;;;;;;;8.95;64.59;98515.50;2603758;28;20049;-85
2023/05/17 02:47:36;;;;;;;2.17;0.98;;;;;;;9.17;63.98;98515.91;2602862;28;20053;-86
2023/05/17 02:48:51;;;;;;;2.40;0.80;;;;;;;8.88;63.94;98522.59;2604910;28;20044;-85
2023/05/17 02:50:07;;;;;;;4.75;1.13;;;;;;;9.06;63.41;98517.03;2604951;28;20053;-85
2023/05/17 02:51:23;;;;;;;2.60;0.85;;;;;;;8.93;64.55;98524.25;2604791;28;20334;-85
2023/05/17 02:52:39;;;;;;;1.13;0.50;;;;;;;8.73;65.31;98523.78;2605439;28;20049;-86
2023/05/17 02:53:54;;;;;;;4.95;1.30;;;;;;;8.85;65.13;98521.78;2604453;28;20053;-85
2023/05/17 02:55:10;;;;;;;2.53;0.80;;;;;;;9.02;65.47;98521.47;2603713;28;20111;-86
2023/05/17 02:56:25;;;;;;;2.15;0.70;;;;;;;8.89;65.31;98524.31;2602868;28;20061;-85
2023/05/17 02:57:41;;;;;;;4.25;0.88;;;;;;;9.01;65.05;98524.97;2603977;28;20104;-86
2023/05/17 02:58:58;;;;;;;0.73;0.47;;;;;;;9.01;65.56;98536.28;2606415;28;20045;-84
2023/05/17 03:00:15;;;;;;;1.55;0.70;;;;;;;8.92;65.94;98527.75;2604888;28;20056;-86
2023/05/17 03:01:31;;;;;;;1.70;0.80;;;;;;;8.89;66.05;98534.75;2604310;28;20053;-86
2023/05/17 03:02:46;;;;;;;4.40;1.15;;;;;;;8.88;66.02;98537.41;2603987;28;20496;-86
2023/05/17 03:04:02;;;;;;;3.97;0.90;;;;;;;8.73;67.20;98538.56;2604622;28;20389;-85
2023/05/17 03:05:17;;;;;;;6.05;1.00;;;;;;;8.72;67.27;98539.44;2603233;28;20050;-84
2023/05/17 03:06:33;;;;;;;2.13;0.95;;;;;;;8.69;67.63;98537.75;2606844;28;20072;-84
2023/05/17 03:07:49;;;;;;;3.90;0.80;;;;;;;8.49;68.57;98543.31;2604966;28;20053;-83
2023/05/17 03:09:05;;;;;;;1.38;1.13;;;;;;;8.49;67.50;98548.53;2604889;28;20049;-86
2023/05/17 03:10:21;;;;;;;1.45;0.57;;;;;;;8.56;67.75;98546.69;2606261;28;20049;-85
2023/05/17 03:11:37;;;;;;;2.58;1.00;;;;;;;8.29;70.38;98549.75;2605147;28;20056;-86
2023/05/17 03:12:52;;;;;;;1.70;0.85;;;;;;;8.55;68.82;98551.06;2604146;28;20045;-86
2023/05/17 03:14:08;;;;;;;2.15;0.80;;;;;;;8.63;69.10;98553.53;2603482;28;20099;-85
2023/05/17 03:15:25;;;;;;;3.38;1.00;;;;;;;8.51;69.84;98548.53;2603164;28;20053;-85
2023/05/17 03:16:40;;;;;;;2.47;1.00;;;;;;;8.57;70.14;98553.63;2603928;28;20069;-85
2023/05/17 03:17:56;;;;;;;2.65;0.70;;;;;;;8.32;72.49;98549.69;2606062;28;20257;-85
2023/05/17 03:19:12;;;;;;;3.53;0.90;;;;;;;8.05;75.30;98559.69;2594225;28;20050;-85
2023/05/17 03:20:27;;;;;;;4.15;1.00;;;;;;;8.00;75.77;98560.63;2596747;28;20052;-85
2023/05/17 03:21:43;;;;;;;1.92;0.85;;;;;;;8.10;75.34;98563.94;2602783;28;20128;-85
2023/05/17 03:22:58;;;;;;;1.92;0.85;;;;;;;7.99;75.32;98569.34;2604038;28;20044;-83
2023/05/17 03:24:14;;;;;;;1.55;0.80;;;;;;;7.86;77.80;98566.91;2603351;28;20104;-83
2023/05/17 03:25:30;;;;;;;5.07;1.00;;;;;;;7.74;80.03;98564.50;2605084;28;20132;-83
2023/05/17 03:26:45;;;;;;;4.68;1.65;;;;;;;7.62;80.69;98563.81;2603266;28;20053;-83
2023/05/17 03:28:01;;;;;;;1.85;0.93;;;;;;;7.81;79.42;98562.66;2606061;28;20412;-83
2023/05/17 03:29:16;;;;;;;2.15;0.88;;;;;;;7.74;80.34;98572.31;2599185;28;20037;-83
2023/05/17 03:30:32;;;;;;;1.67;0.70;;;;;;;7.58;82.78;98567.31;2605785;28;20045;-85
2023/05/17 03:31:47;;;;;;;3.13;0.88;;;;;;;7.60;82.18;98565.53;2603478;28;20056;-85
2023/05/17 03:33:03;;;;;;;3.47;1.05;;;;;;;7.72;80.57;98568.88;2606434;28;20057;-85
2023/05/17 03:34:19;;;;;;;2.00;0.80;;;;;;;7.73;80.69;98567.97;2603748;28;20205;-85
2023/05/17 03:35:34;;;;;;;2.30;1.10;;;;;;;7.72;80.33;98568.88;2604371;28;20052;-85
2023/05/17 03:36:50;;;;;;;1.35;0.80;;;;;;;7.71;80.51;98570.63;2605020;28;20057;-85
2023/05/17 03:38:05;;;;;;;1.48;0.90;;;;;;;7.61;81.62;98564.69;2604920;28;20770;-85
2023/05/17 03:39:21;;;;;;;3.42;0.90;;;;;;;7.50;83.25;98569.19;2603990;28;20056;-85
2023/05/17 03:40:37;;;;;;;3.30;0.90;;;;;;;7.38;85.31;98566.75;2605857;28;20076;-85
2023/05/17 03:41:52;;;;;;;1.05;0.80;;;;;;;7.18;88.25;98573.91;2603850;28;20044;-85
2023/05/17 03:43:08;;;;;;;2.53;0.90;;;;;;;7.03;91.08;98571.50;2592722;28;20567;-85
2023/05/17 03:44:23;;;;;;;2.90;0.95;;;;;;;6.86;94.01;98577.75;2597382;28;20049;-83
2023/05/17 03:45:39;;;;;;;3.58;1.00;;;;;;;6.90;94.21;98579.44;2602404;28;20044;-85
2023/05/17 03:46:54;;;;;;;5.63;1.45;;;;;;;6.89;94.38;98576.84;2606138;28;20056;-86
2023/05/17 03:48:10;;;;;;;2.53;1.10;;;;;;;6.85;94.72;98581.25;2601641;28;20056;-89
2023/05/17 03:49:26;;;;;;;2.60;1.20;;;;;;;6.96;94.14;98580.25;2602076;28;20206;-85
2023/05/17 03:50:41;;;;;;;2.10;1.00;;;;;;;7.01;93.99;98578.47;2604852;28;20049;-85
2023/05/17 03:51:57;;;;;;;2.95;0.90;;;;;;;6.97;94.35;98576.75;2604579;28;20211;-85
2023/05/17 03:53:12;;;;;;;2.50;1.10;;;;;;;7.10;93.28;98577.50;2604532;28;20045;-85
2023/05/17 03:54:28;;;;;;;4.85;1.00;;;;;;;7.16;92.68;98578.28;2605721;28;20041;-85
2023/05/17 03:55:43;;;;;;;1.80;1.25;;;;;;;7.18;93.23;98573.91;2605440;28;20063;-85
2023/05/17 03:56:59;;;;;;;2.40;1.00;;;;;;;7.34;93.75;98581.53;2604275;28;20041;-85
2023/05/17 03:58:15;;;;;;;2.70;0.95;;;;;;;7.41;92.36;98579.72;2605754;28;20083;-85
2023/05/17 03:59:31;;;;;;;3.85;1.13;;;;;;;7.51;89.64;98580.44;2604091;28;20500;-85
2023/05/17 04:00:46;;;;;;;4.32;1.13;;;;;;;7.49;88.78;98581.34;2603980;28;20037;-85
2023/05/17 04:02:02;;;;;;;2.00;1.10;;;;;;;7.44;93.38;98584.88;2604606;28;20416;-85
2023/05/17 04:03:18;;;;;;;4.57;1.20;;;;;;;7.77;88.42;98583.56;2603534;28;20389;-85
2023/05/17 04:04:33;;;;;;;1.20;1.10;;;;;;;7.53;91.89;98586.50;2603854;28;20492;-86
2023/05/17 04:05:49;;;;;;;2.97;0.90;;;;;;;7.56;91.29;98591.69;2603830;28;20048;-85
2023/05/17 04:07:05;;;;;;;1.23;1.00;;;;;;;7.67;92.16;98581.97;2604149;28;20091;-85
2023/05/17 04:08:20;;;;;;;1.90;0.88;;;;;;;7.75;91.54;98584.47;2604704;28;20077;-85
2023/05/17 04:09:36;;;;;;;2.30;1.00;;;;;;;7.35;98.38;98586.75;2603805;28;20068;-85
2023/05/17 04:10:52;;;;;;;3.80;1.17;;;;;;;7.17;98.73;98589.53;2604495;28;20053;-85
2023/05/17 04:12:09;;;;;;;3.00;1.00;;;;;;;7.31;97.88;98597.22;2604344;28;20681;-85
2023/05/17 04:13:25;;;;;;;3.35;0.98;;;;;;;7.10;100.00;98598.31;2602806;28;20484;-85
2023/05/17 04:14:40;;;;;;;4.90;1.50;;;;;;;7.00;100.00;98595.81;2603427;28;20103;-85
2023/05/17 04:15:56;;;;;;;4.63;1.15;;;;;;;7.04;100.00;98592.28;2602228;28;20044;-86
2023/05/17 04:17:11;;;;;;;3.60;1.02;;;;;;;7.05;100.00;98591.44;2604418;28;20060;-85
2023/05/17 04:18:28;;;;;;;3.97;1.10;;;;;;;7.26;100.00;98591.16;2604396;28;20397;-85
2023/05/17 04:19:43;;;;;;;2.55;1.08;;;;;;;7.27;100.00;98587.72;2602457;28;20057;-85
2023/05/17 04:20:58;;;;;;;3.90;1.10;;;;;;;7.15;100.00;98583.50;2605560;28;20068;-85
2023/05/17 04:22:14;;;;;;;2.45;1.10;;;;;;;7.34;100.00;98589.34;2592868;28;20097;-85
2023/05/17 04:23:31;;;;;;;2.70;1.00;;;;;;;7.24;100.00;98592.94;2597716;28;20056;-85
2023/05/17 04:24:47;;;;;;;4.75;1.30;;;;;;;7.16;100.00;98587.81;2604377;28;20057;-85
2023/05/17 04:26:04;;;;;;;5.70;1.40;;;;;;;7.46;100.00;98593.53;2603809;28;20103;-86
2023/05/17 04:27:20;;;;;;;1.75;1.27;;;;;;;7.22;100.00;98590.38;2603373;28;20045;-85
2023/05/17 04:28:36;;;;;;;2.92;1.20;;;;;;;7.23;100.00;98586.88;2604772;28;20630;-85
2023/05/17 04:29:51;;;;;;;1.50;0.93;;;;;;;7.36;100.00;98577.16;2603473;28;20496;-85
2023/05/17 04:31:07;;;;;;;2.65;1.20;;;;;;;7.48;100.00;98577.00;2604478;28;20049;-85
2023/05/17 04:32:23;;;;;;;5.25;1.10;;;;;;;7.44;100.00;98582.28;2603382;28;20519;-85
2023/05/17 04:33:38;;;;;;;5.40;1.30;;;;;;;7.57;100.00;98585.59;2603688;28;20102;-91
2023/05/17 04:34:55;;;;;;;1.38;1.20;;;;;;;7.62;100.00;98589.88;2605298;28;20060;-85
2023/05/17 04:36:10;;;;;;;3.65;1.10;;;;;;;7.51;100.00;98593.47;2591593;28;20057;-85
2023/05/17 04:37:26;;;;;;;5.28;1.50;;;;;;;7.55;100.00;98598.63;2596701;28;20539;-86
2023/05/17 04:38:42;;;;;;;1.65;1.00;;;;;;;7.63;100.00;98607.22;2593883;28;20078;-85
2023/05/17 04:39:57;;;;;;;4.32;1.20;;;;;;;7.75;100.00;98597.50;2596337;28;20042;-85
2023/05/17 04:41:13;;;;;;;3.15;1.20;;;;;;;7.71;100.00;98603.63;2603553;28;20049;-85
2023/05/17 04:42:29;;;;;;;7.00;1.20;;;;;;;7.76;100.00;98607.91;2602972;28;21095;-85
2023/05/17 04:43:45;;;;;;;4.82;1.40;;;;;;;8.05;100.00;98611.00;2594548;28;20049;-85
2023/05/17 04:45:01;;;;;;;3.85;1.73;;;;;;;7.95;100.00;98607.63;2596185;28;20072;-86
2023/05/17 04:46:16;;;;;;;3.08;1.25;;;;;;;7.91;100.00;98613.78;2603516;28;20057;-86
2023/05/17 04:47:32;;;;;;;3.30;1.50;;;;;;;7.99;100.00;98614.53;2604338;28;20045;-86
2023/05/17 04:48:48;;;;;;;3.58;1.20;;;;;;;8.11;100.00;98617.84;2602779;28;20047;-86
2023/05/17 04:50:03;;;;;;;3.20;1.20;;;;;;;8.11;100.00;98623.06;2603551;28;20057;-86
2023/05/17 04:51:19;;;;;;;4.28;0.95;;;;;;;8.12;100.00;98623.03;2602499;28;20119;-86
2023/05/17 04:52:41;;;;;;;;;;;;;;;8.11;100.00;98615.25;2594350;28;20104;-86
2023/05/17 04:53:59;;;;;;;3.50;1.30;;;;;;;8.18;100.00;98622.06;2597792;28;19925;-85
2023/05/17 04:55:15;;;;;;;3.60;1.20;;;;;;;8.27;100.00;98619.34;2604328;28;20508;-85
2023/05/17 04:56:32;;;;;;;4.00;1.73;;;;;;;8.58;100.00;98628.44;2603369;28;20045;-85
2023/05/17 04:57:47;;;;;;;2.55;1.45;;;;;;;8.64;100.00;98640.50;2604308;28;20041;-85
2023/05/17 04:59:03;;;;;;;3.53;1.50;;;;;;;8.59;100.00;98638.84;2604464;28;20045;-85
2023/05/17 05:00:21;;;;;;;1.85;1.10;;;;;;;8.35;100.00;98647.91;2591518;28;20052;-83
2023/05/17 05:01:37;;;;;;;6.38;1.40;;;;;;;8.53;100.00;98652.00;2597556;28;20052;-85
2023/05/17 05:02:52;;;;;;;3.67;1.20;;;;;;;8.62;100.00;98653.59;2603754;28;20048;-86
2023/05/17 05:04:08;;;;;;;2.72;1.30;;;;;;;8.67;100.00;98659.59;2602192;28;20057;-85
2023/05/17 05:05:24;;;;;;;3.30;1.30;;;;;;;8.72;100.00;98664.75;2603306;28;20044;-85
2023/05/17 05:06:39;;;;;;;2.90;1.13;;;;;;;8.81;100.00;98664.59;2603861;28;20053;-85
2023/05/17 05:07:56;;;;;;;2.20;1.20;;;;;;;8.61;100.00;98664.94;2603480;28;20045;-86
2023/05/17 05:09:12;;;;;;;5.20;1.60;;;;;;;8.73;100.00;98674.31;2592824;28;20056;-85
2023/05/17 05:10:28;;;;;;;4.93;1.23;;;;;;;8.75;100.00;98685.56;2596411;28;20056;-85
2023/05/17 05:11:43;;;;;;;6.00;1.25;;;;;;;8.73;100.00;98684.75;2599471;28;20048;-86
2023/05/17 05:12:59;;;;;;;2.85;1.20;;;;;;;8.71;100.00;98686.53;2603503;28;20049;-86
2023/05/17 05:14:14;;;;;;;2.40;1.40;;;;;;;8.76;96.25;98684.69;2601886;28;20099;-85
2023/05/17 05:15:31;;;;;;;5.10;1.25;;;;;;;8.78;99.26;98688.13;2604227;28;20425;-85
2023/05/17 05:16:49;;;;;;;4.35;1.40;;;;;;;8.91;96.11;98691.41;2603323;28;20060;-85
2023/05/17 05:18:04;;;;;;;6.03;1.27;;;;;;;8.83;99.53;98686.31;2602760;28;21061;-85
2023/05/17 05:19:20;;;;;;;3.38;1.10;;;;;;;8.82;98.81;98688.94;2603421;28;20057;-85
2023/05/17 05:20:35;;;;;;;3.55;2.05;;;;;;;8.88;97.83;98689.69;2604031;28;20049;-85
2023/05/17 05:21:51;;;;;;;2.92;1.20;;;;;;;8.53;100.00;98695.50;2603643;28;20071;-85
2023/05/17 05:23:07;;;;;;;6.22;1.33;;;;;;;8.57;98.11;98705.00;2604554;28;20087;-86
2023/05/17 05:24:22;;;;;;;6.05;1.38;;;;;;;8.73;98.86;98708.22;2603022;28;20158;-85
2023/05/17 05:25:38;;;;;;;5.15;1.20;;;;;;;8.96;93.11;98712.22;2603683;28;20049;-85
2023/05/17 05:26:53;;;;;;;4.68;1.40;;;;;;;9.22;94.94;98714.38;2604353;28;20741;-85
2023/05/17 05:28:10;;;;;;;5.15;1.23;;;;;;;8.76;100.00;98708.19;2602559;28;20053;-86
2023/05/17 05:29:25;;;;;;;3.08;0.90;;;;;;;8.89;93.23;98709.69;2603498;28;20508;-85
2023/05/17 05:30:41;;;;;;;2.67;0.80;;;;;;;8.61;98.47;98711.91;2603536;28;20068;-86
2023/05/17 05:31:56;;;;;;;4.70;1.25;;;;;;;8.76;95.35;98716.00;2603015;28;20044;-86
2023/05/17 05:33:12;;;;;;;1.45;1.17;;;;;;;9.11;95.91;98717.19;2602991;28;20056;-86
2023/05/17 05:34:28;;;;;;;5.25;1.55;;;;;;;9.11;93.35;98711.97;2604615;28;20056;-86
2023/05/17 05:35:44;;;;;;;3.30;1.08;;;;;;;9.16;93.20;98711.88;2603493;28;20060;-85
2023/05/17 05:37:00;;;;;;;2.75;0.82;;;;;;;8.71;95.62;98707.41;2598124;28;20045;-85
2023/05/17 05:38:21;;;;;;;1.83;0.80;;;;;;;8.69;97.30;98707.41;2603316;28;20640;-85
2023/05/17 05:39:36;;;;;;;1.83;0.85;;;;;;;8.54;97.55;98700.72;2603544;28;20129;-85
2023/05/17 05:40:52;;;;;;;2.95;1.00;;;;;;;8.94;94.05;98709.63;2602656;28;20096;-85
2023/05/17 05:42:08;;;;;;;2.10;1.00;;;;;;;8.88;96.67;98709.75;2604245;28;20060;-86
2023/05/17 05:43:23;;;;;;;1.25;1.00;;;;;;;9.07;94.11;98706.81;2603208;28;20049;-85
2023/05/17 05:44:39;;;;;;;2.85;1.00;;;;;;;9.06;89.03;98710.31;2603818;28;20488;-85
2023/05/17 05:45:54;;;;;;;3.95;1.00;;;;;;;9.28;85.01;98700.34;2603964;28;20090;-85
2023/05/17 05:47:10;;;;;;;2.20;0.88;;;;;;;8.97;91.88;98701.72;2602449;28;20049;-85
2023/05/17 05:48:25;;;;;;;7.20;1.27;;;;;;;9.17;86.28;98704.00;2602925;28;20100;-85
2023/05/17 05:49:41;;;;;;;2.08;0.80;;;;;;;9.10;85.73;98704.13;2604609;28;20048;-85
2023/05/17 05:50:57;;;;;;;4.28;1.27;;;;;;;9.11;84.96;98701.50;2601987;28;20049;-85
2023/05/17 05:52:12;;;;;;;2.35;1.05;;;;;;;9.51;85.81;98706.88;2604314;28;20421;-85
2023/05/17 05:53:28;;;;;;;2.65;1.00;;;;;;;9.26;81.65;98709.97;2604803;28;20053;-86
2023/05/17 05:54:44;;;;;;;2.47;1.17;;;;;;;9.36;82.00;98701.06;2603303;28;20048;-85
2023/05/17 05:56:00;;;;;;;2.25;0.80;;;;;;;9.33;86.18;98704.59;2603033;28;20060;-85
2023/05/17 05:57:15;;;;;;;1.27;0.90;;;;;;;9.35;90.69;98698.47;2604721;28;20500;-85
2023/05/17 05:58:31;;;;;;;4.63;1.30;;;;;;;9.46;86.80;98702.59;2603794;28;20045;-85
2023/05/17 05:59:47;;;;;;;1.73;0.90;;;;;;;9.58;88.18;98698.03;2604103;28;20064;-85
2023/05/17 06:01:02;;;;;;;3.53;1.13;;;;;;;9.75;85.67;98701.16;2604898;28;20053;-85
2023/05/17 06:02:18;;;;;;;1.50;1.10;;;;;;;9.62;86.79;98697.06;2601713;28;20131;-86
2023/05/17 06:03:34;;;;;;;3.45;1.60;;;;;;;9.75;87.91;98697.69;2598091;28;20049;-84
2023/05/17 06:04:49;;;;;;;2.47;1.20;;;;;;;9.98;86.39;98699.81;2602453;28;20132;-83